sensor_id;sensor_type;location;lat;lon;timestamp;P1;P2;P0
78408;PMS5003;67697;50.750;-3.270;2023-10-08T00:01:38;11;10;
78408;PMS5003;67697;50.750;-3.270;2023-10-08T00:04:03;10;10;
78408;PMS5003;67697;50.750;-3.270;2023-10-08T00:06:29;11;9;
78408;PMS5003;67697;50.750;-3.270;2023-10-08T00:08:54;10;9;
78408;PMS5003;67697;50.750;-3.270;2023-10-08T00:11:20;7;7;
78408;PMS5003;67697;50.750;-3.270;2023-10-08T00:13:45;8;7;
78408;PMS5003;67697;50.750;-3.270;2023-10-08T00:16:11;10;9;
78408;PMS5003;67697;50.750;-3.270;2023-10-08T00:18:37;11;10;
78408;PMS5003;67697;50.750;-3.270;2023-10-08T00:21:02;11;11;
78408;PMS5003;67697;50.750;-3.270;2023-10-08T00:23:27;13;10;
78408;PMS5003;67697;50.750;-3.270;2023-10-08T00:25:53;11;11;
78408;PMS5003;67697;50.750;-3.270;2023-10-08T00:28:18;13;12;
78408;PMS5003;67697;50.750;-3.270;2023-10-08T00:30:43;11;11;
78408;PMS5003;67697;50.750;-3.270;2023-10-08T00:33:09;15;14;
78408;PMS5003;67697;50.750;-3.270;2023-10-08T00:35:37;20;15;
78408;PMS5003;67697;50.750;-3.270;2023-10-08T00:38:00;17;15;
78408;PMS5003;67697;50.750;-3.270;2023-10-08T00:40:25;14;12;
78408;PMS5003;67697;50.750;-3.270;2023-10-08T00:42:51;17;15;
78408;PMS5003;67697;50.750;-3.270;2023-10-08T00:45:17;21;20;
78408;PMS5003;67697;50.750;-3.270;2023-10-08T00:47:42;14;13;
78408;PMS5003;67697;50.750;-3.270;2023-10-08T00:50:08;13;10;
78408;PMS5003;67697;50.750;-3.270;2023-10-08T00:52:33;13;12;
78408;PMS5003;67697;50.750;-3.270;2023-10-08T00:54:59;15;14;
78408;PMS5003;67697;50.750;-3.270;2023-10-08T00:57:25;22;16;
78408;PMS5003;67697;50.750;-3.270;2023-10-08T00:59:49;15;15;
78408;PMS5003;67697;50.750;-3.270;2023-10-08T01:02:15;16;13;
78408;PMS5003;67697;50.750;-3.270;2023-10-08T01:04:40;13;13;
78408;PMS5003;67697;50.750;-3.270;2023-10-08T01:07:11;15;13;
78408;PMS5003;67697;50.750;-3.270;2023-10-08T01:09:31;16;15;
78408;PMS5003;67697;50.750;-3.270;2023-10-08T01:14:22;14;11;
78408;PMS5003;67697;50.750;-3.270;2023-10-08T01:16:47;16;14;
78408;PMS5003;67697;50.750;-3.270;2023-10-08T01:19:17;14;14;
78408;PMS5003;67697;50.750;-3.270;2023-10-08T01:21:38;16;13;
78408;PMS5003;67697;50.750;-3.270;2023-10-08T01:24:03;12;12;
78408;PMS5003;67697;50.750;-3.270;2023-10-08T01:26:29;13;13;
78408;PMS5003;67697;50.750;-3.270;2023-10-08T01:28:54;17;16;
78408;PMS5003;67697;50.750;-3.270;2023-10-08T01:31:19;15;12;
78408;PMS5003;67697;50.750;-3.270;2023-10-08T01:33:44;13;12;
78408;PMS5003;67697;50.750;-3.270;2023-10-08T01:36:10;10;10;
78408;PMS5003;67697;50.750;-3.270;2023-10-08T01:38:35;13;12;
78408;PMS5003;67697;50.750;-3.270;2023-10-08T01:41:01;14;10;
78408;PMS5003;67697;50.750;-3.270;2023-10-08T01:43:26;12;8;
78408;PMS5003;67697;50.750;-3.270;2023-10-08T01:45:52;10;10;
78408;PMS5003;67697;50.750;-3.270;2023-10-08T01:48:17;9;9;
78408;PMS5003;67697;50.750;-3.270;2023-10-08T01:50:43;16;13;
78408;PMS5003;67697;50.750;-3.270;2023-10-08T01:53:09;13;11;
78408;PMS5003;67697;50.750;-3.270;2023-10-08T01:55:34;14;14;
78408;PMS5003;67697;50.750;-3.270;2023-10-08T01:58:00;12;9;
78408;PMS5003;67697;50.750;-3.270;2023-10-08T02:00:25;13;9;
78408;PMS5003;67697;50.750;-3.270;2023-10-08T02:02:51;17;13;
78408;PMS5003;67697;50.750;-3.270;2023-10-08T02:05:16;10;10;
78408;PMS5003;67697;50.750;-3.270;2023-10-08T02:07:42;12;12;
78408;PMS5003;67697;50.750;-3.270;2023-10-08T02:10:08;13;12;
78408;PMS5003;67697;50.750;-3.270;2023-10-08T02:12:33;15;15;
78408;PMS5003;67697;50.750;-3.270;2023-10-08T02:14:58;16;15;
78408;PMS5003;67697;50.750;-3.270;2023-10-08T02:17:24;11;11;
78408;PMS5003;67697;50.750;-3.270;2023-10-08T02:19:49;15;14;
78408;PMS5003;67697;50.750;-3.270;2023-10-08T02:22:14;16;16;
78408;PMS5003;67697;50.750;-3.270;2023-10-08T02:24:40;13;13;
78408;PMS5003;67697;50.750;-3.270;2023-10-08T02:27:06;14;14;
78408;PMS5003;67697;50.750;-3.270;2023-10-08T02:29:31;17;14;
78408;PMS5003;67697;50.750;-3.270;2023-10-08T02:31:56;17;15;
78408;PMS5003;67697;50.750;-3.270;2023-10-08T02:34:22;13;11;
78408;PMS5003;67697;50.750;-3.270;2023-10-08T02:36:48;17;14;
78408;PMS5003;67697;50.750;-3.270;2023-10-08T02:39:13;12;12;
78408;PMS5003;67697;50.750;-3.270;2023-10-08T02:41:39;13;12;
78408;PMS5003;67697;50.750;-3.270;2023-10-08T02:44:04;16;13;
78408;PMS5003;67697;50.750;-3.270;2023-10-08T02:46:29;14;14;
78408;PMS5003;67697;50.750;-3.270;2023-10-08T02:48:55;12;10;
78408;PMS5003;67697;50.750;-3.270;2023-10-08T02:51:20;19;17;
78408;PMS5003;67697;50.750;-3.270;2023-10-08T02:53:45;13;12;
78408;PMS5003;67697;50.750;-3.270;2023-10-08T02:56:11;11;11;
78408;PMS5003;67697;50.750;-3.270;2023-10-08T02:58:36;16;12;
78408;PMS5003;67697;50.750;-3.270;2023-10-08T03:01:02;13;13;
78408;PMS5003;67697;50.750;-3.270;2023-10-08T03:03:28;17;14;
78408;PMS5003;67697;50.750;-3.270;2023-10-08T03:05:53;19;16;
78408;PMS5003;67697;50.750;-3.270;2023-10-08T03:08:19;13;12;
78408;PMS5003;67697;50.750;-3.270;2023-10-08T03:10:43;16;16;
78408;PMS5003;67697;50.750;-3.270;2023-10-08T03:13:09;17;13;
78408;PMS5003;67697;50.750;-3.270;2023-10-08T03:15:34;15;12;
78408;PMS5003;67697;50.750;-3.270;2023-10-08T03:18:00;13;12;
78408;PMS5003;67697;50.750;-3.270;2023-10-08T03:20:26;17;13;
78408;PMS5003;67697;50.750;-3.270;2023-10-08T03:22:51;13;12;
78408;PMS5003;67697;50.750;-3.270;2023-10-08T03:25:17;14;13;
78408;PMS5003;67697;50.750;-3.270;2023-10-08T03:27:42;11;10;
78408;PMS5003;67697;50.750;-3.270;2023-10-08T03:30:08;13;12;
78408;PMS5003;67697;50.750;-3.270;2023-10-08T03:32:34;17;13;
78408;PMS5003;67697;50.750;-3.270;2023-10-08T03:34:59;16;14;
78408;PMS5003;67697;50.750;-3.270;2023-10-08T03:37:25;8;8;
78408;PMS5003;67697;50.750;-3.270;2023-10-08T03:39:50;15;12;
78408;PMS5003;67697;50.750;-3.270;2023-10-08T03:42:18;9;8;
78408;PMS5003;67697;50.750;-3.270;2023-10-08T03:44:41;12;10;
78408;PMS5003;67697;50.750;-3.270;2023-10-08T03:47:07;13;11;
78408;PMS5003;67697;50.750;-3.270;2023-10-08T03:49:33;14;13;
78408;PMS5003;67697;50.750;-3.270;2023-10-08T03:51:58;12;12;
78408;PMS5003;67697;50.750;-3.270;2023-10-08T03:54:24;14;14;
78408;PMS5003;67697;50.750;-3.270;2023-10-08T03:56:49;16;14;
78408;PMS5003;67697;50.750;-3.270;2023-10-08T03:59:15;12;12;
78408;PMS5003;67697;50.750;-3.270;2023-10-08T04:01:41;14;14;
78408;PMS5003;67697;50.750;-3.270;2023-10-08T04:04:06;18;15;
78408;PMS5003;67697;50.750;-3.270;2023-10-08T04:06:31;12;12;
78408;PMS5003;67697;50.750;-3.270;2023-10-08T04:08:57;13;13;
78408;PMS5003;67697;50.750;-3.270;2023-10-08T04:11:23;10;8;
78408;PMS5003;67697;50.750;-3.270;2023-10-08T04:13:48;16;15;
78408;PMS5003;67697;50.750;-3.270;2023-10-08T04:16:13;14;11;
78408;PMS5003;67697;50.750;-3.270;2023-10-08T04:18:38;19;16;
78408;PMS5003;67697;50.750;-3.270;2023-10-08T04:21:04;13;13;
78408;PMS5003;67697;50.750;-3.270;2023-10-08T04:23:29;12;11;
78408;PMS5003;67697;50.750;-3.270;2023-10-08T04:25:55;14;14;
78408;PMS5003;67697;50.750;-3.270;2023-10-08T04:28:20;14;12;
78408;PMS5003;67697;50.750;-3.270;2023-10-08T04:30:46;13;12;
78408;PMS5003;67697;50.750;-3.270;2023-10-08T04:33:11;14;11;
78408;PMS5003;67697;50.750;-3.270;2023-10-08T04:35:37;19;13;
78408;PMS5003;67697;50.750;-3.270;2023-10-08T04:38:03;10;10;
78408;PMS5003;67697;50.750;-3.270;2023-10-08T04:40:28;14;11;
78408;PMS5003;67697;50.750;-3.270;2023-10-08T04:42:54;12;11;
78408;PMS5003;67697;50.750;-3.270;2023-10-08T04:45:19;11;11;
78408;PMS5003;67697;50.750;-3.270;2023-10-08T04:47:45;13;12;
78408;PMS5003;67697;50.750;-3.270;2023-10-08T04:50:10;16;13;
78408;PMS5003;67697;50.750;-3.270;2023-10-08T04:52:36;16;13;
78408;PMS5003;67697;50.750;-3.270;2023-10-08T04:55:01;10;10;
78408;PMS5003;67697;50.750;-3.270;2023-10-08T04:57:27;11;8;
78408;PMS5003;67697;50.750;-3.270;2023-10-08T04:59:52;14;13;
78408;PMS5003;67697;50.750;-3.270;2023-10-08T05:02:18;15;14;
78408;PMS5003;67697;50.750;-3.270;2023-10-08T05:04:43;11;9;
78408;PMS5003;67697;50.750;-3.270;2023-10-08T05:07:09;16;13;
78408;PMS5003;67697;50.750;-3.270;2023-10-08T05:09:34;11;11;
78408;PMS5003;67697;50.750;-3.270;2023-10-08T05:12:00;15;11;
78408;PMS5003;67697;50.750;-3.270;2023-10-08T05:14:25;12;11;
78408;PMS5003;67697;50.750;-3.270;2023-10-08T05:16:51;12;11;
78408;PMS5003;67697;50.750;-3.270;2023-10-08T05:19:16;11;11;
78408;PMS5003;67697;50.750;-3.270;2023-10-08T05:21:42;14;14;
78408;PMS5003;67697;50.750;-3.270;2023-10-08T05:24:07;11;10;
78408;PMS5003;67697;50.750;-3.270;2023-10-08T05:26:32;11;10;
78408;PMS5003;67697;50.750;-3.270;2023-10-08T05:28:58;14;11;
78408;PMS5003;67697;50.750;-3.270;2023-10-08T05:31:23;9;9;
78408;PMS5003;67697;50.750;-3.270;2023-10-08T05:33:49;12;8;
78408;PMS5003;67697;50.750;-3.270;2023-10-08T05:36:14;14;11;
78408;PMS5003;67697;50.750;-3.270;2023-10-08T05:38:40;8;8;
78408;PMS5003;67697;50.750;-3.270;2023-10-08T05:41:06;13;9;
78408;PMS5003;67697;50.750;-3.270;2023-10-08T05:43:32;11;8;
78408;PMS5003;67697;50.750;-3.270;2023-10-08T05:45:57;10;7;
78408;PMS5003;67697;50.750;-3.270;2023-10-08T05:48:23;11;11;
78408;PMS5003;67697;50.750;-3.270;2023-10-08T05:50:48;8;8;
78408;PMS5003;67697;50.750;-3.270;2023-10-08T05:53:13;12;8;
78408;PMS5003;67697;50.750;-3.270;2023-10-08T05:55:39;8;8;
78408;PMS5003;67697;50.750;-3.270;2023-10-08T05:58:05;13;11;
78408;PMS5003;67697;50.750;-3.270;2023-10-08T06:00:30;11;10;
78408;PMS5003;67697;50.750;-3.270;2023-10-08T06:02:56;12;12;
78408;PMS5003;67697;50.750;-3.270;2023-10-08T06:05:21;11;11;
78408;PMS5003;67697;50.750;-3.270;2023-10-08T06:07:48;14;11;
78408;PMS5003;67697;50.750;-3.270;2023-10-08T06:10:13;14;12;
78408;PMS5003;67697;50.750;-3.270;2023-10-08T06:12:38;11;10;
78408;PMS5003;67697;50.750;-3.270;2023-10-08T06:15:04;11;10;
78408;PMS5003;67697;50.750;-3.270;2023-10-08T06:17:30;10;10;
78408;PMS5003;67697;50.750;-3.270;2023-10-08T06:19:55;12;10;
78408;PMS5003;67697;50.750;-3.270;2023-10-08T06:22:21;18;13;
78408;PMS5003;67697;50.750;-3.270;2023-10-08T06:24:46;19;15;
78408;PMS5003;67697;50.750;-3.270;2023-10-08T06:27:12;15;14;
78408;PMS5003;67697;50.750;-3.270;2023-10-08T06:29:37;24;20;
78408;PMS5003;67697;50.750;-3.270;2023-10-08T06:32:02;15;14;
78408;PMS5003;67697;50.750;-3.270;2023-10-08T06:34:28;14;12;
78408;PMS5003;67697;50.750;-3.270;2023-10-08T06:36:54;11;10;
78408;PMS5003;67697;50.750;-3.270;2023-10-08T06:39:19;17;15;
78408;PMS5003;67697;50.750;-3.270;2023-10-08T06:41:44;14;13;
78408;PMS5003;67697;50.750;-3.270;2023-10-08T06:44:10;11;11;
78408;PMS5003;67697;50.750;-3.270;2023-10-08T06:46:35;14;14;
78408;PMS5003;67697;50.750;-3.270;2023-10-08T06:49:02;16;13;
78408;PMS5003;67697;50.750;-3.270;2023-10-08T06:51:26;13;12;
78408;PMS5003;67697;50.750;-3.270;2023-10-08T06:53:52;13;13;
78408;PMS5003;67697;50.750;-3.270;2023-10-08T06:56:17;14;13;
78408;PMS5003;67697;50.750;-3.270;2023-10-08T06:58:43;15;10;
78408;PMS5003;67697;50.750;-3.270;2023-10-08T07:01:08;15;15;
78408;PMS5003;67697;50.750;-3.270;2023-10-08T07:03:38;12;9;
78408;PMS5003;67697;50.750;-3.270;2023-10-08T07:05:58;11;10;
78408;PMS5003;67697;50.750;-3.270;2023-10-08T07:08:24;12;12;
78408;PMS5003;67697;50.750;-3.270;2023-10-08T07:10:49;15;11;
78408;PMS5003;67697;50.750;-3.270;2023-10-08T07:13:15;10;10;
78408;PMS5003;67697;50.750;-3.270;2023-10-08T07:15:40;13;11;
78408;PMS5003;67697;50.750;-3.270;2023-10-08T07:18:06;20;13;
78408;PMS5003;67697;50.750;-3.270;2023-10-08T07:20:31;18;12;
78408;PMS5003;67697;50.750;-3.270;2023-10-08T07:22:57;18;12;
78408;PMS5003;67697;50.750;-3.270;2023-10-08T07:25:22;13;11;
78408;PMS5003;67697;50.750;-3.270;2023-10-08T07:27:48;15;13;
78408;PMS5003;67697;50.750;-3.270;2023-10-08T07:30:14;13;13;
78408;PMS5003;67697;50.750;-3.270;2023-10-08T07:32:39;12;9;
78408;PMS5003;67697;50.750;-3.270;2023-10-08T07:35:05;15;13;
78408;PMS5003;67697;50.750;-3.270;2023-10-08T07:37:30;12;11;
78408;PMS5003;67697;50.750;-3.270;2023-10-08T07:39:56;13;11;
78408;PMS5003;67697;50.750;-3.270;2023-10-08T07:42:21;17;13;
78408;PMS5003;67697;50.750;-3.270;2023-10-08T07:44:47;17;13;
78408;PMS5003;67697;50.750;-3.270;2023-10-08T07:47:13;18;15;
78408;PMS5003;67697;50.750;-3.270;2023-10-08T07:49:38;17;13;
78408;PMS5003;67697;50.750;-3.270;2023-10-08T07:52:04;12;11;
78408;PMS5003;67697;50.750;-3.270;2023-10-08T07:54:30;13;12;
78408;PMS5003;67697;50.750;-3.270;2023-10-08T07:56:55;13;12;
78408;PMS5003;67697;50.750;-3.270;2023-10-08T07:59:21;12;11;
78408;PMS5003;67697;50.750;-3.270;2023-10-08T08:01:46;13;13;
78408;PMS5003;67697;50.750;-3.270;2023-10-08T08:04:12;14;13;
78408;PMS5003;67697;50.750;-3.270;2023-10-08T08:06:38;13;11;
78408;PMS5003;67697;50.750;-3.270;2023-10-08T08:09:03;13;12;
78408;PMS5003;67697;50.750;-3.270;2023-10-08T08:11:29;11;11;
78408;PMS5003;67697;50.750;-3.270;2023-10-08T08:13:55;12;11;
78408;PMS5003;67697;50.750;-3.270;2023-10-08T08:16:20;13;9;
78408;PMS5003;67697;50.750;-3.270;2023-10-08T08:18:46;17;14;
78408;PMS5003;67697;50.750;-3.270;2023-10-08T08:21:11;18;13;
78408;PMS5003;67697;50.750;-3.270;2023-10-08T08:23:36;17;15;
78408;PMS5003;67697;50.750;-3.270;2023-10-08T08:26:02;14;14;
78408;PMS5003;67697;50.750;-3.270;2023-10-08T08:28:27;16;11;
78408;PMS5003;67697;50.750;-3.270;2023-10-08T08:30:53;13;11;
78408;PMS5003;67697;50.750;-3.270;2023-10-08T08:33:19;12;12;
78408;PMS5003;67697;50.750;-3.270;2023-10-08T08:35:44;12;12;
78408;PMS5003;67697;50.750;-3.270;2023-10-08T08:38:10;11;11;
78408;PMS5003;67697;50.750;-3.270;2023-10-08T08:40:36;11;11;
78408;PMS5003;67697;50.750;-3.270;2023-10-08T08:43:01;13;11;
78408;PMS5003;67697;50.750;-3.270;2023-10-08T08:45:27;10;10;
78408;PMS5003;67697;50.750;-3.270;2023-10-08T08:47:52;15;13;
78408;PMS5003;67697;50.750;-3.270;2023-10-08T08:50:18;21;16;
78408;PMS5003;67697;50.750;-3.270;2023-10-08T08:52:48;29;28;
78408;PMS5003;67697;50.750;-3.270;2023-10-08T08:55:09;30;28;
78408;PMS5003;67697;50.750;-3.270;2023-10-08T08:57:34;26;25;
78408;PMS5003;67697;50.750;-3.270;2023-10-08T08:59:59;27;24;
78408;PMS5003;67697;50.750;-3.270;2023-10-08T09:02:25;23;21;
78408;PMS5003;67697;50.750;-3.270;2023-10-08T09:04:50;23;23;
78408;PMS5003;67697;50.750;-3.270;2023-10-08T09:07:19;26;24;
78408;PMS5003;67697;50.750;-3.270;2023-10-08T09:09:41;25;22;
78408;PMS5003;67697;50.750;-3.270;2023-10-08T09:12:06;25;23;
78408;PMS5003;67697;50.750;-3.270;2023-10-08T09:14:32;18;18;
78408;PMS5003;67697;50.750;-3.270;2023-10-08T09:16:57;17;16;
78408;PMS5003;67697;50.750;-3.270;2023-10-08T09:19:24;22;17;
78408;PMS5003;67697;50.750;-3.270;2023-10-08T09:24:17;14;14;
78408;PMS5003;67697;50.750;-3.270;2023-10-08T09:26:38;18;17;
78408;PMS5003;67697;50.750;-3.270;2023-10-08T09:29:04;14;14;
78408;PMS5003;67697;50.750;-3.270;2023-10-08T09:31:30;17;16;
78408;PMS5003;67697;50.750;-3.270;2023-10-08T09:33:55;15;14;
78408;PMS5003;67697;50.750;-3.270;2023-10-08T09:36:21;15;15;
78408;PMS5003;67697;50.750;-3.270;2023-10-08T09:38:46;15;14;
78408;PMS5003;67697;50.750;-3.270;2023-10-08T09:41:11;12;12;
78408;PMS5003;67697;50.750;-3.270;2023-10-08T09:43:37;17;16;
78408;PMS5003;67697;50.750;-3.270;2023-10-08T09:46:07;12;12;
78408;PMS5003;67697;50.750;-3.270;2023-10-08T09:48:28;12;11;
78408;PMS5003;67697;50.750;-3.270;2023-10-08T09:50:53;15;15;
78408;PMS5003;67697;50.750;-3.270;2023-10-08T09:53:19;16;16;
78408;PMS5003;67697;50.750;-3.270;2023-10-08T09:55:44;14;13;
78408;PMS5003;67697;50.750;-3.270;2023-10-08T09:58:09;13;13;
78408;PMS5003;67697;50.750;-3.270;2023-10-08T10:00:34;13;13;
78408;PMS5003;67697;50.750;-3.270;2023-10-08T10:03:00;15;15;
78408;PMS5003;67697;50.750;-3.270;2023-10-08T10:05:28;15;13;
78408;PMS5003;67697;50.750;-3.270;2023-10-08T10:07:51;16;13;
78408;PMS5003;67697;50.750;-3.270;2023-10-08T10:12:42;15;14;
78408;PMS5003;67697;50.750;-3.270;2023-10-08T10:15:08;18;16;
78408;PMS5003;67697;50.750;-3.270;2023-10-08T10:17:33;13;12;
78408;PMS5003;67697;50.750;-3.270;2023-10-08T10:20:00;15;13;
78408;PMS5003;67697;50.750;-3.270;2023-10-08T10:22:27;14;12;
78408;PMS5003;67697;50.750;-3.270;2023-10-08T10:24:49;14;13;
78408;PMS5003;67697;50.750;-3.270;2023-10-08T10:27:15;13;12;
78408;PMS5003;67697;50.750;-3.270;2023-10-08T10:29:40;12;12;
78408;PMS5003;67697;50.750;-3.270;2023-10-08T10:32:05;10;9;
78408;PMS5003;67697;50.750;-3.270;2023-10-08T10:34:31;10;10;
78408;PMS5003;67697;50.750;-3.270;2023-10-08T10:36:57;12;10;
78408;PMS5003;67697;50.750;-3.270;2023-10-08T10:39:22;13;12;
78408;PMS5003;67697;50.750;-3.270;2023-10-08T10:41:47;13;9;
78408;PMS5003;67697;50.750;-3.270;2023-10-08T10:44:12;13;11;
78408;PMS5003;67697;50.750;-3.270;2023-10-08T10:46:37;12;12;
78408;PMS5003;67697;50.750;-3.270;2023-10-08T10:49:03;13;10;
78408;PMS5003;67697;50.750;-3.270;2023-10-08T10:51:28;12;12;
78408;PMS5003;67697;50.750;-3.270;2023-10-08T10:53:54;9;9;
78408;PMS5003;67697;50.750;-3.270;2023-10-08T10:56:19;10;10;
78408;PMS5003;67697;50.750;-3.270;2023-10-08T10:58:45;9;9;
78408;PMS5003;67697;50.750;-3.270;2023-10-08T11:01:10;11;10;
78408;PMS5003;67697;50.750;-3.270;2023-10-08T11:03:35;10;10;
78408;PMS5003;67697;50.750;-3.270;2023-10-08T11:06:01;10;8;
78408;PMS5003;67697;50.750;-3.270;2023-10-08T11:08:26;10;9;
78408;PMS5003;67697;50.750;-3.270;2023-10-08T11:10:52;13;10;
78408;PMS5003;67697;50.750;-3.270;2023-10-08T11:13:18;9;9;
78408;PMS5003;67697;50.750;-3.270;2023-10-08T11:15:43;12;10;
78408;PMS5003;67697;50.750;-3.270;2023-10-08T11:18:09;8;8;
78408;PMS5003;67697;50.750;-3.270;2023-10-08T11:20:34;9;8;
78408;PMS5003;67697;50.750;-3.270;2023-10-08T11:22:59;8;8;
78408;PMS5003;67697;50.750;-3.270;2023-10-08T11:25:30;8;6;
78408;PMS5003;67697;50.750;-3.270;2023-10-08T11:27:51;11;9;
78408;PMS5003;67697;50.750;-3.270;2023-10-08T11:30:16;7;7;
78408;PMS5003;67697;50.750;-3.270;2023-10-08T11:32:41;6;6;
78408;PMS5003;67697;50.750;-3.270;2023-10-08T11:35:07;6;6;
78408;PMS5003;67697;50.750;-3.270;2023-10-08T11:37:32;7;7;
78408;PMS5003;67697;50.750;-3.270;2023-10-08T11:39:58;7;6;
78408;PMS5003;67697;50.750;-3.270;2023-10-08T11:42:24;9;9;
78408;PMS5003;67697;50.750;-3.270;2023-10-08T11:44:49;6;6;
78408;PMS5003;67697;50.750;-3.270;2023-10-08T11:47:14;10;8;
78408;PMS5003;67697;50.750;-3.270;2023-10-08T11:49:40;11;10;
78408;PMS5003;67697;50.750;-3.270;2023-10-08T11:52:05;8;7;
78408;PMS5003;67697;50.750;-3.270;2023-10-08T11:54:30;8;8;
78408;PMS5003;67697;50.750;-3.270;2023-10-08T11:56:56;8;7;
78408;PMS5003;67697;50.750;-3.270;2023-10-08T11:59:21;9;9;
78408;PMS5003;67697;50.750;-3.270;2023-10-08T12:01:47;9;8;
78408;PMS5003;67697;50.750;-3.270;2023-10-08T12:04:12;8;7;
78408;PMS5003;67697;50.750;-3.270;2023-10-08T12:06:38;8;8;
78408;PMS5003;67697;50.750;-3.270;2023-10-08T12:09:03;8;8;
78408;PMS5003;67697;50.750;-3.270;2023-10-08T12:11:28;10;9;
78408;PMS5003;67697;50.750;-3.270;2023-10-08T12:13:54;9;8;
78408;PMS5003;67697;50.750;-3.270;2023-10-08T12:16:19;10;7;
78408;PMS5003;67697;50.750;-3.270;2023-10-08T12:18:45;6;6;
78408;PMS5003;67697;50.750;-3.270;2023-10-08T12:21:10;6;6;
78408;PMS5003;67697;50.750;-3.270;2023-10-08T12:23:36;9;9;
78408;PMS5003;67697;50.750;-3.270;2023-10-08T12:26:01;6;5;
78408;PMS5003;67697;50.750;-3.270;2023-10-08T12:28:27;8;8;
78408;PMS5003;67697;50.750;-3.270;2023-10-08T12:30:52;9;7;
78408;PMS5003;67697;50.750;-3.270;2023-10-08T12:33:18;8;6;
78408;PMS5003;67697;50.750;-3.270;2023-10-08T12:35:43;7;7;
78408;PMS5003;67697;50.750;-3.270;2023-10-08T12:38:09;6;6;
78408;PMS5003;67697;50.750;-3.270;2023-10-08T12:40:35;5;5;
78408;PMS5003;67697;50.750;-3.270;2023-10-08T12:43:00;7;7;
78408;PMS5003;67697;50.750;-3.270;2023-10-08T12:45:25;9;8;
78408;PMS5003;67697;50.750;-3.270;2023-10-08T12:47:51;8;7;
78408;PMS5003;67697;50.750;-3.270;2023-10-08T12:50:17;9;9;
78408;PMS5003;67697;50.750;-3.270;2023-10-08T12:52:42;7;7;
78408;PMS5003;67697;50.750;-3.270;2023-10-08T12:55:07;9;9;
78408;PMS5003;67697;50.750;-3.270;2023-10-08T12:57:32;7;7;
78408;PMS5003;67697;50.750;-3.270;2023-10-08T12:59:58;7;7;
78408;PMS5003;67697;50.750;-3.270;2023-10-08T13:02:23;6;6;
78408;PMS5003;67697;50.750;-3.270;2023-10-08T13:04:49;8;7;
78408;PMS5003;67697;50.750;-3.270;2023-10-08T13:07:14;9;8;
78408;PMS5003;67697;50.750;-3.270;2023-10-08T13:09:39;10;8;
78408;PMS5003;67697;50.750;-3.270;2023-10-08T13:12:05;6;6;
78408;PMS5003;67697;50.750;-3.270;2023-10-08T13:14:30;7;7;
78408;PMS5003;67697;50.750;-3.270;2023-10-08T13:16:56;8;7;
78408;PMS5003;67697;50.750;-3.270;2023-10-08T13:19:21;8;8;
78408;PMS5003;67697;50.750;-3.270;2023-10-08T13:21:47;7;7;
78408;PMS5003;67697;50.750;-3.270;2023-10-08T13:24:12;8;6;
78408;PMS5003;67697;50.750;-3.270;2023-10-08T13:26:38;8;8;
78408;PMS5003;67697;50.750;-3.270;2023-10-08T13:29:04;9;8;
78408;PMS5003;67697;50.750;-3.270;2023-10-08T13:31:29;4;4;
78408;PMS5003;67697;50.750;-3.270;2023-10-08T13:33:54;7;6;
78408;PMS5003;67697;50.750;-3.270;2023-10-08T13:36:20;9;7;
78408;PMS5003;67697;50.750;-3.270;2023-10-08T13:38:46;9;9;
78408;PMS5003;67697;50.750;-3.270;2023-10-08T13:41:11;10;9;
78408;PMS5003;67697;50.750;-3.270;2023-10-08T13:43:36;8;8;
78408;PMS5003;67697;50.750;-3.270;2023-10-08T13:46:02;13;11;
78408;PMS5003;67697;50.750;-3.270;2023-10-08T13:48:27;10;10;
78408;PMS5003;67697;50.750;-3.270;2023-10-08T13:50:52;10;10;
78408;PMS5003;67697;50.750;-3.270;2023-10-08T13:53:18;12;10;
78408;PMS5003;67697;50.750;-3.270;2023-10-08T13:55:43;9;9;
78408;PMS5003;67697;50.750;-3.270;2023-10-08T13:58:09;10;10;
78408;PMS5003;67697;50.750;-3.270;2023-10-08T14:00:34;11;11;
78408;PMS5003;67697;50.750;-3.270;2023-10-08T14:02:59;12;11;
78408;PMS5003;67697;50.750;-3.270;2023-10-08T14:05:25;10;9;
78408;PMS5003;67697;50.750;-3.270;2023-10-08T14:07:51;9;8;
78408;PMS5003;67697;50.750;-3.270;2023-10-08T14:10:16;8;8;
78408;PMS5003;67697;50.750;-3.270;2023-10-08T14:12:41;9;9;
78408;PMS5003;67697;50.750;-3.270;2023-10-08T14:15:07;9;9;
78408;PMS5003;67697;50.750;-3.270;2023-10-08T14:17:32;8;8;
78408;PMS5003;67697;50.750;-3.270;2023-10-08T14:19:57;9;9;
78408;PMS5003;67697;50.750;-3.270;2023-10-08T14:22:23;7;7;
78408;PMS5003;67697;50.750;-3.270;2023-10-08T14:24:48;13;12;
78408;PMS5003;67697;50.750;-3.270;2023-10-08T14:27:14;11;11;
78408;PMS5003;67697;50.750;-3.270;2023-10-08T14:29:39;11;10;
78408;PMS5003;67697;50.750;-3.270;2023-10-08T14:32:04;9;9;
78408;PMS5003;67697;50.750;-3.270;2023-10-08T14:34:30;6;6;
78408;PMS5003;67697;50.750;-3.270;2023-10-08T14:36:55;13;11;
78408;PMS5003;67697;50.750;-3.270;2023-10-08T14:39:21;10;10;
78408;PMS5003;67697;50.750;-3.270;2023-10-08T14:41:46;10;9;
78408;PMS5003;67697;50.750;-3.270;2023-10-08T14:44:12;10;10;
78408;PMS5003;67697;50.750;-3.270;2023-10-08T14:46:37;11;11;
78408;PMS5003;67697;50.750;-3.270;2023-10-08T14:49:03;10;9;
78408;PMS5003;67697;50.750;-3.270;2023-10-08T14:51:28;11;11;
78408;PMS5003;67697;50.750;-3.270;2023-10-08T14:53:53;10;9;
78408;PMS5003;67697;50.750;-3.270;2023-10-08T14:56:24;12;12;
78408;PMS5003;67697;50.750;-3.270;2023-10-08T14:58:44;9;9;
78408;PMS5003;67697;50.750;-3.270;2023-10-08T15:01:10;11;11;
78408;PMS5003;67697;50.750;-3.270;2023-10-08T15:03:35;10;10;
78408;PMS5003;67697;50.750;-3.270;2023-10-08T15:06:00;11;11;
78408;PMS5003;67697;50.750;-3.270;2023-10-08T15:08:26;9;9;
78408;PMS5003;67697;50.750;-3.270;2023-10-08T15:10:51;10;10;
78408;PMS5003;67697;50.750;-3.270;2023-10-08T15:13:16;9;9;
78408;PMS5003;67697;50.750;-3.270;2023-10-08T15:15:41;9;9;
78408;PMS5003;67697;50.750;-3.270;2023-10-08T15:18:12;12;12;
78408;PMS5003;67697;50.750;-3.270;2023-10-08T15:20:32;11;10;
78408;PMS5003;67697;50.750;-3.270;2023-10-08T15:22:58;9;9;
78408;PMS5003;67697;50.750;-3.270;2023-10-08T15:25:23;9;9;
78408;PMS5003;67697;50.750;-3.270;2023-10-08T15:27:48;9;9;
78408;PMS5003;67697;50.750;-3.270;2023-10-08T15:30:15;12;8;
78408;PMS5003;67697;50.750;-3.270;2023-10-08T15:32:39;8;8;
78408;PMS5003;67697;50.750;-3.270;2023-10-08T15:35:04;13;12;
78408;PMS5003;67697;50.750;-3.270;2023-10-08T15:37:30;14;11;
78408;PMS5003;67697;50.750;-3.270;2023-10-08T15:39:55;9;9;
78408;PMS5003;67697;50.750;-3.270;2023-10-08T15:42:21;15;12;
78408;PMS5003;67697;50.750;-3.270;2023-10-08T15:44:46;13;11;
78408;PMS5003;67697;50.750;-3.270;2023-10-08T15:47:11;10;10;
78408;PMS5003;67697;50.750;-3.270;2023-10-08T15:49:37;17;15;
78408;PMS5003;67697;50.750;-3.270;2023-10-08T15:52:02;14;12;
78408;PMS5003;67697;50.750;-3.270;2023-10-08T15:54:28;13;13;
78408;PMS5003;67697;50.750;-3.270;2023-10-08T15:56:53;14;12;
78408;PMS5003;67697;50.750;-3.270;2023-10-08T15:59:19;16;10;
78408;PMS5003;67697;50.750;-3.270;2023-10-08T16:01:44;13;13;
78408;PMS5003;67697;50.750;-3.270;2023-10-08T16:04:09;13;11;